createdAt,value
2019-02-27T00:00:44.668Z,22.92
2019-02-27T00:03:12.667Z,21.52
2019-02-27T00:05:41.729Z,25.40
2019-02-27T00:08:08.568Z,23.05
2019-02-27T00:10:36.920Z,20.55
2019-02-27T00:13:04.623Z,24.45
2019-02-27T00:15:32.647Z,22.92
2019-02-27T00:18:00.643Z,24.55
2019-02-27T00:20:28.698Z,21.90
2019-02-27T00:22:57.112Z,21.70
2019-02-27T00:25:25.181Z,23.08
2019-02-27T00:27:53.251Z,24.33
2019-02-27T00:30:21.237Z,21.98
2019-02-27T00:32:51.268Z,23.67
2019-02-27T00:35:17.179Z,23.45
2019-02-27T00:37:44.886Z,22.50
2019-02-27T00:40:12.641Z,23.73
2019-02-27T00:42:40.521Z,21.25
2019-02-27T00:45:09.716Z,23.67
2019-02-27T00:47:37.724Z,24.20
2019-02-27T00:50:06.755Z,22.70
2019-02-27T00:52:33.896Z,24.00
2019-02-27T00:55:04.309Z,25.80
2019-02-27T00:57:30.117Z,23.77
2019-02-27T00:59:58.123Z,25.73
2019-02-27T01:02:26.266Z,23.40
2019-02-27T01:04:54.363Z,24.77
2019-02-27T01:07:22.960Z,23.33
2019-02-27T01:09:51.538Z,24.05
2019-02-27T01:12:19.369Z,27.55
2019-02-27T01:14:47.722Z,29.15
2019-02-27T01:17:16.274Z,25.65
2019-02-27T01:19:44.085Z,22.70
2019-02-27T01:22:11.942Z,26.10
2019-02-27T01:24:43.359Z,29.10
2019-02-27T01:27:11.412Z,27.50
2019-02-27T01:29:39.930Z,26.42
2019-02-27T01:32:08.007Z,25.00
2019-02-27T01:34:35.794Z,25.60
2019-02-27T01:37:04.167Z,26.37
2019-02-27T01:39:32.161Z,27.45
2019-02-27T01:42:00.224Z,24.75
2019-02-27T01:44:28.567Z,24.75
2019-02-27T01:47:01.879Z,27.80
2019-02-27T01:49:25.165Z,30.77
2019-02-27T01:51:53.612Z,27.27
2019-02-27T01:54:21.682Z,25.88
2019-02-27T01:56:49.769Z,27.60
2019-02-27T01:59:17.910Z,23.27
2019-02-27T02:01:45.708Z,26.23
2019-02-27T02:04:14.839Z,25.50
2019-02-27T02:06:42.902Z,27.85
2019-02-27T02:09:30.065Z,27.67
2019-02-27T02:11:58.068Z,25.80
2019-02-27T02:14:41.181Z,25.52
2019-02-27T02:17:15.021Z,25.33
2019-02-27T02:20:05.036Z,27.52
2019-02-27T02:22:59.691Z,28.27
2019-02-27T02:26:03.338Z,26.70
2019-02-27T02:28:43.502Z,26.10
2019-02-27T02:31:31.092Z,28.27
2019-02-27T02:34:30.168Z,28.92
2019-02-27T02:37:23.332Z,28.80
2019-02-27T02:40:05.004Z,28.55
2019-02-27T02:42:44.005Z,25.52
2019-02-27T02:45:14.034Z,18.05
2019-02-27T02:47:56.018Z,23.98
2019-02-27T02:50:40.040Z,22.13
2019-02-27T02:53:10.841Z,20.83
2019-02-27T02:55:47.606Z,23.12
2019-02-27T02:58:49.135Z,24.20
2019-02-27T03:01:36.307Z,30.00
2019-02-27T03:04:12.814Z,29.17
2019-02-27T03:06:55.707Z,23.30
2019-02-27T03:09:46.337Z,22.87
2019-02-27T03:12:32.763Z,22.40
2019-02-27T03:15:18.938Z,24.10
2019-02-27T03:18:12.101Z,20.95
2019-02-27T03:20:43.124Z,20.58
2019-02-27T03:23:25.123Z,17.48
2019-02-27T03:26:24.499Z,21.05
2019-02-27T03:29:01.033Z,24.00
2019-02-27T03:31:34.196Z,29.17
2019-02-27T03:34:33.595Z,29.20
2019-02-27T03:37:22.308Z,31.02
2019-02-27T03:40:00.391Z,31.27
2019-02-27T03:42:53.494Z,35.90
2019-02-27T03:45:40.629Z,32.00
2019-02-27T03:48:15.419Z,32.30
2019-02-27T03:50:49.422Z,28.67
2019-02-27T03:53:18.130Z,28.70
2019-02-27T03:56:09.827Z,20.52
2019-02-27T03:58:45.196Z,21.98
2019-02-27T04:01:33.813Z,25.37
2019-02-27T04:04:21.907Z,23.92
2019-02-27T04:07:12.811Z,22.92
2019-02-27T04:09:41.188Z,24.10
2019-02-27T04:12:09.195Z,24.00
2019-02-27T04:14:41.791Z,39.78
2019-02-27T04:17:07.329Z,39.30
2019-02-27T04:19:38.866Z,38.22
2019-02-27T04:22:01.111Z,36.37
2019-02-27T04:24:28.628Z,35.70
2019-02-27T04:26:56.761Z,36.00
2019-02-27T04:29:24.973Z,32.28
2019-02-27T04:31:53.660Z,32.05
2019-02-27T04:34:21.489Z,32.53
2019-02-27T04:36:50.090Z,34.67
2019-02-27T04:39:18.147Z,35.22
2019-02-27T04:41:46.178Z,34.97
2019-02-27T04:44:14.493Z,33.33
2019-02-27T04:46:42.705Z,33.03
2019-02-27T04:49:10.847Z,34.80
2019-02-27T04:51:38.940Z,31.45
2019-02-27T04:54:07.553Z,33.60
2019-02-27T04:56:34.871Z,35.97
2019-02-27T04:59:02.945Z,36.97
2019-02-27T05:01:31.008Z,32.08
2019-02-27T05:04:01.012Z,31.87
2019-02-27T05:06:28.845Z,31.42
2019-02-27T05:08:59.803Z,32.40
2019-02-27T05:11:27.650Z,32.53
2019-02-27T05:13:58.099Z,30.00
2019-02-27T05:16:25.880Z,36.88
2019-02-27T05:18:53.960Z,29.65
2019-02-27T05:21:22.020Z,32.33
2019-02-27T05:23:49.896Z,34.47
2019-02-27T05:26:17.948Z,51.08
2019-02-27T05:28:46.307Z,37.92
2019-02-27T05:31:18.217Z,22.77
2019-02-27T05:33:42.583Z,23.62
2019-02-27T05:36:10.967Z,21.17
2019-02-27T05:38:41.017Z,22.13
2019-02-27T05:41:06.772Z,23.35
2019-02-27T05:43:34.962Z,23.52
2019-02-27T05:46:03.338Z,28.77
2019-02-27T05:48:30.815Z,32.27
2019-02-27T05:50:59.137Z,31.93
2019-02-27T05:53:27.243Z,28.23
2019-02-27T05:55:55.327Z,29.00
2019-02-27T05:58:23.712Z,26.30
2019-02-27T06:00:51.548Z,30.00
2019-02-27T06:03:19.607Z,28.85
2019-02-27T06:05:49.781Z,25.92
2019-02-27T06:08:16.048Z,25.42
2019-02-27T06:10:44.167Z,27.55
2019-02-27T06:13:14.186Z,27.60
2019-02-27T06:15:41.510Z,21.77
2019-02-27T06:18:09.596Z,22.40
2019-02-27T06:20:41.579Z,22.58
2019-02-27T06:23:07.203Z,25.02
2019-02-27T06:25:33.510Z,24.75
2019-02-27T06:28:01.699Z,25.83
2019-02-27T06:30:30.609Z,25.35
2019-02-27T06:32:57.932Z,26.37
2019-02-27T06:35:26.530Z,25.70
2019-02-27T06:37:54.453Z,22.37
2019-02-27T06:40:22.575Z,32.93
2019-02-27T06:42:53.510Z,35.43
2019-02-27T06:45:18.309Z,27.73
2019-02-27T06:47:47.042Z,25.03
2019-02-27T06:50:15.148Z,25.75
2019-02-27T06:52:43.311Z,20.98
2019-02-27T06:55:13.128Z,20.33
2019-02-27T06:57:41.291Z,24.37
2019-02-27T07:00:09.740Z,23.05
2019-02-27T07:02:37.860Z,18.42
2019-02-27T07:05:05.934Z,21.52
2019-02-27T07:07:34.458Z,21.65
2019-02-27T07:10:02.438Z,26.25
2019-02-27T07:12:30.538Z,22.00
2019-02-27T07:14:59.107Z,22.95
2019-02-27T07:17:29.218Z,23.20
2019-02-27T07:19:55.206Z,21.15
2019-02-27T07:22:23.151Z,20.70
2019-02-27T07:24:51.116Z,21.55
2019-02-27T07:27:18.840Z,22.77
2019-02-27T07:29:46.807Z,24.73
2019-02-27T07:32:14.506Z,23.62
2019-02-27T07:34:42.206Z,22.92
2019-02-27T07:37:10.434Z,19.25
2019-02-27T07:39:37.612Z,24.35
2019-02-27T07:42:05.561Z,24.60
2019-02-27T07:44:35.030Z,20.62
2019-02-27T07:47:01.500Z,22.95
2019-02-27T07:49:30.958Z,26.67
2019-02-27T07:51:58.084Z,22.48
2019-02-27T07:54:28.836Z,22.95
2019-02-27T07:56:53.978Z,21.33
2019-02-27T07:59:21.928Z,21.37
2019-02-27T08:01:49.901Z,21.62
2019-02-27T08:04:19.502Z,20.65
2019-02-27T08:06:45.890Z,23.65
2019-02-27T08:09:13.877Z,20.12
2019-02-27T08:11:42.199Z,22.52
2019-02-27T08:14:12.816Z,23.40
2019-02-27T08:16:39.945Z,26.00
2019-02-27T08:19:08.886Z,24.95
2019-02-27T08:21:36.231Z,23.30
2019-02-27T08:24:07.457Z,22.23
2019-02-27T08:26:31.704Z,23.95
2019-02-27T08:28:59.664Z,26.65
2019-02-27T08:31:28.267Z,21.12
2019-02-27T08:33:55.655Z,22.70
2019-02-27T08:36:23.615Z,24.92
2019-02-27T08:38:51.580Z,23.77
2019-02-27T08:41:19.589Z,21.87
2019-02-27T08:43:48.254Z,24.12
2019-02-27T08:46:16.209Z,25.10
2019-02-27T08:48:44.206Z,24.35
2019-02-27T08:51:12.152Z,24.55
2019-02-27T08:53:39.848Z,24.98
2019-02-27T08:56:09.906Z,22.17
2019-02-27T08:58:36.152Z,22.98
2019-02-27T09:01:04.127Z,25.85
2019-02-27T09:03:36.167Z,22.87
2019-02-27T09:06:00.271Z,23.92
2019-02-27T09:08:31.391Z,22.95
2019-02-27T09:10:56.765Z,22.50
2019-02-27T09:13:24.719Z,27.25
2019-02-27T09:15:52.677Z,24.17
2019-02-27T09:18:22.917Z,25.62
2019-02-27T09:20:53.074Z,25.92
2019-02-27T09:23:18.340Z,20.73
2019-02-27T09:25:44.947Z,24.45
2019-02-27T09:28:12.921Z,21.98
2019-02-27T09:30:40.911Z,23.00
2019-02-27T09:33:09.540Z,23.65
2019-02-27T09:35:38.778Z,20.12
2019-02-27T09:38:05.546Z,20.25
2019-02-27T09:40:38.630Z,19.80
2019-02-27T09:43:02.010Z,21.25
2019-02-27T09:45:30.808Z,23.62
2019-02-27T09:47:59.970Z,21.30
2019-02-27T09:50:33.983Z,26.25
2019-02-27T09:53:03.533Z,20.27
2019-02-27T09:55:29.898Z,24.20
2019-02-27T09:57:57.882Z,23.30
2019-02-27T10:00:36.366Z,20.45
2019-02-27T10:03:04.086Z,20.37
2019-02-27T10:05:36.253Z,23.70
2019-02-27T10:07:59.912Z,20.27
2019-02-27T10:10:27.602Z,21.77
2019-02-27T10:12:55.611Z,23.20
2019-02-27T10:15:25.258Z,20.62
2019-02-27T10:17:51.572Z,20.60
2019-02-27T10:20:20.269Z,21.02
2019-02-27T10:22:52.516Z,20.75
2019-02-27T10:25:18.614Z,19.95
2019-02-27T10:27:47.306Z,18.30
2019-02-27T10:30:14.594Z,17.12
2019-02-27T10:32:42.527Z,15.75
2019-02-27T10:35:10.614Z,18.02
2019-02-27T10:37:38.668Z,13.60
2019-02-27T10:40:08.756Z,14.48
2019-02-27T10:42:35.496Z,15.82
2019-02-27T10:45:03.735Z,13.85
2019-02-27T10:47:33.674Z,14.65
2019-02-27T10:50:02.197Z,17.20
2019-02-27T10:52:27.619Z,16.45
2019-02-27T10:54:55.610Z,15.23
2019-02-27T10:57:23.369Z,15.48
2019-02-27T10:59:51.401Z,14.20
2019-02-27T11:02:19.403Z,15.68
2019-02-27T11:04:49.993Z,15.85
2019-02-27T11:07:16.804Z,13.77
2019-02-27T11:09:43.876Z,16.62
2019-02-27T11:12:12.361Z,16.12
2019-02-27T11:14:40.344Z,17.73
2019-02-27T11:17:08.558Z,17.12
2019-02-27T11:19:36.562Z,15.75
2019-02-27T11:22:05.682Z,16.02
2019-02-27T11:24:33.672Z,16.52
2019-02-27T11:27:03.458Z,17.12
2019-02-27T11:29:30.017Z,17.27
2019-02-27T11:31:58.254Z,16.00
2019-02-27T11:34:26.245Z,15.77
2019-02-27T11:36:54.261Z,16.73
2019-02-27T11:39:22.250Z,15.45
2019-02-27T11:41:50.010Z,16.27
2019-02-27T11:44:18.061Z,17.65
2019-02-27T11:46:45.778Z,16.65
2019-02-27T11:49:13.776Z,15.15
2019-02-27T11:51:41.751Z,14.90
2019-02-27T11:54:09.708Z,16.48
2019-02-27T11:56:37.698Z,17.83
2019-02-27T11:59:05.934Z,19.62
2019-02-27T12:01:33.888Z,14.98
2019-02-27T12:04:01.570Z,15.93
2019-02-27T12:06:30.120Z,15.45
2019-02-27T12:08:59.803Z,17.25
2019-02-27T12:11:26.059Z,19.05
2019-02-27T12:13:54.842Z,17.27
2019-02-27T12:16:21.520Z,18.80
2019-02-27T12:18:49.521Z,17.70
2019-02-27T12:21:18.578Z,19.10
2019-02-27T12:23:48.012Z,16.42
2019-02-27T12:26:15.993Z,20.35
2019-02-27T12:28:44.061Z,19.10
2019-02-27T12:31:14.139Z,17.67
2019-02-27T12:33:39.994Z,21.75
2019-02-27T12:36:09.019Z,16.98
2019-02-27T12:38:35.995Z,22.90
2019-02-27T12:41:03.958Z,18.90
2019-02-27T12:43:31.965Z,17.27
2019-02-27T12:46:01.039Z,19.08
2019-02-27T12:48:27.861Z,18.48
2019-02-27T12:50:55.827Z,18.15
2019-02-27T12:53:24.384Z,20.77
2019-02-27T12:55:52.329Z,17.75
2019-02-27T12:58:20.033Z,18.02
2019-02-27T13:00:47.734Z,20.95
2019-02-27T13:03:15.695Z,15.82
2019-02-27T13:05:44.045Z,16.87
2019-02-27T13:08:12.039Z,17.33
2019-02-27T13:10:39.964Z,19.92
2019-02-27T13:13:09.341Z,21.00
2019-02-27T13:15:38.275Z,17.40
2019-02-27T13:18:05.741Z,19.20
2019-02-27T13:20:34.112Z,19.08
2019-02-27T13:23:05.133Z,24.98
2019-02-27T13:25:30.536Z,25.58
2019-02-27T13:27:58.729Z,21.70
2019-02-27T13:30:26.697Z,19.50
2019-02-27T13:32:54.688Z,21.33
2019-02-27T13:35:23.113Z,18.98
2019-02-27T13:37:50.634Z,22.73
2019-02-27T13:40:19.605Z,22.05
2019-02-27T13:42:52.290Z,26.70
2019-02-27T13:45:19.663Z,20.52
2019-02-27T13:47:47.658Z,27.17
2019-02-27T13:50:16.812Z,25.25
2019-02-27T13:52:44.906Z,22.00
2019-02-27T13:55:11.991Z,26.00
2019-02-27T13:57:39.593Z,19.90
2019-02-27T14:00:10.094Z,18.83
2019-02-27T14:02:39.498Z,19.60
2019-02-27T14:05:06.351Z,24.67
2019-02-27T14:07:34.330Z,17.55
2019-02-27T14:10:02.295Z,21.42
2019-02-27T14:12:33.174Z,20.10
2019-02-27T14:14:58.226Z,18.50
2019-02-27T14:17:26.230Z,20.30
2019-02-27T14:19:55.409Z,19.92
2019-02-27T14:22:23.151Z,16.25
2019-02-27T14:24:51.830Z,20.35
2019-02-27T14:27:19.951Z,19.42
2019-02-27T14:29:48.509Z,21.20
2019-02-27T14:32:16.466Z,21.10
2019-02-27T14:34:44.488Z,20.00
2019-02-27T14:37:16.358Z,20.58
2019-02-27T14:39:40.182Z,28.60
2019-02-27T14:42:08.153Z,19.20
2019-02-27T14:44:36.145Z,20.83
2019-02-27T14:47:04.128Z,19.85
2019-02-27T14:49:32.675Z,25.23
2019-02-27T14:52:00.629Z,21.02
2019-02-27T14:54:29.270Z,20.05
2019-02-27T14:56:56.325Z,20.80
2019-02-27T14:59:24.299Z,23.92
2019-02-27T15:01:52.270Z,20.75
2019-02-27T15:04:20.235Z,21.25
2019-02-27T15:06:50.387Z,20.37
2019-02-27T15:09:15.892Z,20.83
2019-02-27T15:11:44.933Z,24.35
2019-02-27T15:14:12.231Z,20.55
2019-02-27T15:16:40.212Z,25.50
2019-02-27T15:19:08.501Z,22.80
2019-02-27T15:21:36.178Z,23.95
2019-02-27T15:24:04.167Z,24.12
2019-02-27T15:26:32.322Z,25.30
2019-02-27T15:29:03.174Z,26.70
2019-02-27T15:31:28.496Z,21.67
2019-02-27T15:33:56.609Z,23.50
2019-02-27T15:36:29.296Z,23.00
2019-02-27T15:38:52.275Z,20.20
2019-02-27T15:41:20.280Z,19.30
2019-02-27T15:43:57.459Z,20.85
2019-02-27T15:46:15.895Z,19.48
2019-02-27T15:48:43.621Z,21.95
2019-02-27T15:51:11.596Z,16.83
2019-02-27T15:53:39.566Z,22.42
2019-02-27T15:56:08.723Z,21.25
2019-02-27T15:58:35.903Z,23.52
2019-02-27T16:01:03.855Z,20.30
2019-02-27T16:03:31.824Z,24.15
2019-02-27T16:06:05.206Z,22.62
2019-02-27T16:08:28.036Z,24.00
2019-02-27T16:10:56.319Z,22.02
2019-02-27T16:13:24.599Z,21.70
2019-02-27T16:15:53.469Z,23.33
2019-02-27T16:18:21.199Z,24.92
2019-02-27T16:20:49.902Z,21.85
2019-02-27T16:23:17.160Z,20.30
2019-02-27T16:25:44.853Z,28.08
2019-02-27T16:28:16.415Z,21.17
2019-02-27T16:30:41.134Z,25.40
2019-02-27T16:33:09.143Z,23.60
2019-02-27T16:35:41.533Z,21.35
2019-02-27T16:38:04.806Z,24.10
2019-02-27T16:40:33.257Z,24.37
2019-02-27T16:43:01.159Z,27.10
2019-02-27T16:45:32.179Z,23.80
2019-02-27T16:47:57.047Z,23.15
2019-02-27T16:50:27.381Z,27.77
2019-02-27T16:52:53.223Z,21.92
2019-02-27T16:55:22.435Z,24.58
2019-02-27T16:57:50.584Z,24.02
2019-02-27T17:00:21.347Z,21.70
2019-02-27T17:02:47.484Z,26.42
2019-02-27T17:05:15.419Z,24.92
2019-02-27T17:07:43.963Z,26.75
2019-02-27T17:10:14.930Z,26.00
2019-02-27T17:12:42.658Z,24.42
2019-02-27T17:15:11.248Z,30.60
2019-02-27T17:17:40.387Z,28.12
2019-02-27T17:20:12.470Z,30.48
2019-02-27T17:22:38.523Z,30.33
2019-02-27T17:25:07.007Z,27.85
2019-02-27T17:27:34.968Z,30.92
2019-02-27T17:30:03.532Z,26.65
2019-02-27T17:32:31.605Z,40.63
2019-02-27T17:34:59.009Z,34.28
2019-02-27T17:37:27.098Z,34.85
2019-02-27T17:39:55.057Z,30.77
2019-02-27T17:42:22.991Z,33.05
2019-02-27T17:44:50.948Z,31.45
2019-02-27T17:47:18.955Z,30.90
2019-02-27T17:49:46.653Z,31.73
2019-02-27T17:52:15.461Z,35.60
2019-02-27T17:54:42.608Z,34.38
2019-02-27T17:57:10.585Z,34.70
2019-02-27T17:59:39.124Z,32.42
2019-02-27T18:02:07.840Z,36.13
2019-02-27T18:04:34.211Z,32.28
2019-02-27T18:07:02.180Z,31.37
2019-02-27T18:09:30.446Z,35.17
2019-02-27T18:11:58.473Z,34.20
2019-02-27T18:14:26.455Z,34.97
2019-02-27T18:16:54.754Z,37.10
2019-02-27T18:19:22.667Z,40.92
2019-02-27T18:21:50.616Z,35.35
2019-02-27T18:24:18.654Z,37.85
2019-02-27T18:26:49.997Z,33.22
2019-02-27T18:29:14.301Z,32.50
2019-02-27T18:31:42.314Z,39.20
2019-02-27T18:34:11.718Z,45.75
2019-02-27T18:36:42.732Z,38.47
2019-02-27T18:39:09.398Z,35.00
2019-02-27T18:41:37.363Z,31.58
2019-02-27T18:44:07.925Z,36.13
2019-02-27T18:46:33.348Z,37.00
2019-02-27T18:49:01.623Z,32.55
2019-02-27T18:51:30.004Z,38.35
2019-02-27T18:53:57.548Z,35.33
2019-02-27T18:56:26.098Z,42.40
2019-02-27T18:58:55.496Z,39.47
2019-02-27T19:01:22.865Z,38.08
2019-02-27T19:03:50.843Z,35.45
2019-02-27T19:06:18.809Z,40.78
2019-02-27T19:08:46.534Z,38.95
2019-02-27T19:11:16.042Z,37.25
2019-02-27T19:13:42.699Z,41.08
2019-02-27T19:16:10.719Z,39.85
2019-02-27T19:18:41.179Z,39.55
2019-02-27T19:21:07.163Z,39.15
2019-02-27T19:23:36.355Z,42.95
2019-02-27T19:26:06.296Z,42.45
2019-02-27T19:28:32.928Z,40.50
2019-02-27T19:31:01.400Z,39.67
2019-02-27T19:33:29.384Z,38.70
2019-02-27T19:35:58.132Z,40.83
2019-02-27T19:38:26.185Z,34.90
2019-02-27T19:40:54.220Z,40.92
2019-02-27T19:43:21.966Z,39.22
2019-02-27T19:45:51.011Z,34.83
2019-02-27T19:48:18.997Z,35.75
2019-02-27T19:50:46.703Z,34.38
2019-02-27T19:53:15.049Z,41.17
2019-02-27T19:55:42.787Z,39.22
2019-02-27T19:58:17.005Z,36.80
2019-02-27T20:00:48.065Z,37.55
2019-02-27T20:03:08.132Z,38.83
2019-02-27T20:05:36.538Z,38.65
2019-02-27T20:08:09.930Z,34.42
2019-02-27T20:10:33.358Z,36.13
2019-02-27T20:13:00.602Z,39.55
2019-02-27T20:15:28.606Z,42.28
2019-02-27T20:17:56.624Z,38.92
2019-02-27T20:20:24.652Z,35.45
2019-02-27T20:22:53.625Z,41.53
2019-02-27T20:25:20.273Z,39.47
2019-02-27T20:27:48.275Z,42.95
2019-02-27T20:30:17.371Z,37.65
2019-02-27T20:32:45.419Z,36.53
2019-02-27T20:35:13.430Z,40.75
2019-02-27T20:37:42.137Z,37.35
2019-02-27T20:40:10.730Z,41.53
2019-02-27T20:42:39.269Z,36.28
2019-02-27T20:45:09.630Z,40.70
2019-02-27T20:47:36.919Z,39.17
2019-02-27T20:50:05.073Z,42.83
2019-02-27T20:52:33.466Z,42.35
2019-02-27T20:55:01.437Z,37.83
2019-02-27T20:57:29.498Z,42.08
2019-02-27T21:00:00.669Z,43.78
2019-02-27T21:02:25.300Z,38.55
2019-02-27T21:04:53.000Z,41.13
2019-02-27T21:07:22.438Z,44.45
2019-02-27T21:09:48.748Z,41.40
2019-02-27T21:12:16.745Z,42.88
2019-02-27T21:14:45.284Z,47.90
2019-02-27T21:17:13.326Z,44.28
2019-02-27T21:19:41.319Z,44.85
2019-02-27T21:22:09.403Z,47.22
2019-02-27T21:24:37.281Z,45.92
2019-02-27T21:27:05.146Z,46.78
2019-02-27T21:29:33.126Z,49.40
2019-02-27T21:32:01.440Z,48.25
2019-02-27T21:34:28.928Z,50.25
2019-02-27T21:36:57.060Z,48.42
2019-02-27T21:39:26.889Z,43.38
2019-02-27T21:41:52.876Z,47.13
2019-02-27T21:44:25.409Z,46.25
2019-02-27T21:46:49.257Z,46.83
2019-02-27T21:49:17.241Z,46.78
2019-02-27T21:51:47.721Z,45.10
2019-02-27T21:54:13.271Z,44.63
2019-02-27T21:56:41.279Z,48.08
2019-02-27T21:59:09.691Z,45.75
2019-02-27T22:01:37.680Z,43.78
2019-02-27T22:04:05.674Z,45.90
2019-02-27T22:06:35.486Z,49.15
2019-02-27T22:09:01.120Z,47.10
2019-02-27T22:11:29.702Z,50.47
2019-02-27T22:13:57.583Z,49.45
2019-02-27T22:16:29.554Z,45.40
2019-02-27T22:18:53.596Z,52.65
2019-02-27T22:21:21.708Z,50.78
2019-02-27T22:23:49.725Z,55.25
2019-02-27T22:26:17.980Z,49.53
2019-02-27T22:28:46.404Z,50.72
2019-02-27T22:31:14.399Z,51.67
2019-02-27T22:33:42.504Z,51.72
2019-02-27T22:36:12.791Z,51.35
2019-02-27T22:38:38.481Z,50.92
2019-02-27T22:41:09.512Z,54.55
2019-02-27T22:43:35.200Z,48.72
2019-02-27T22:46:03.610Z,52.67
2019-02-27T22:48:31.613Z,53.38
2019-02-27T22:50:59.604Z,49.38
2019-02-27T22:53:28.771Z,50.60
2019-02-27T22:55:55.356Z,54.15
2019-02-27T22:58:27.298Z,50.38
2019-02-27T23:01:09.740Z,62.42
2019-02-27T23:03:39.373Z,60.33
2019-02-27T23:06:09.312Z,60.50
2019-02-27T23:08:35.384Z,57.17
2019-02-27T23:11:03.837Z,55.70
2019-02-27T23:13:31.621Z,55.28
2019-02-27T23:15:59.624Z,54.35
2019-02-27T23:18:27.640Z,54.60
2019-02-27T23:20:56.156Z,64.30
2019-02-27T23:23:23.370Z,55.40
2019-02-27T23:25:51.349Z,55.28
2019-02-27T23:28:19.375Z,57.95
2019-02-27T23:30:48.007Z,55.58
2019-02-27T23:33:15.859Z,64.32
2019-02-27T23:35:43.541Z,64.12
2019-02-27T23:38:11.520Z,60.05
2019-02-27T23:40:39.522Z,61.40
2019-02-27T23:43:08.011Z,61.28
2019-02-27T23:45:35.976Z,60.53
2019-02-27T23:48:04.143Z,55.70
2019-02-27T23:50:31.922Z,56.83
2019-02-27T23:52:59.631Z,59.33
2019-02-27T23:55:27.911Z,59.72
2019-02-27T23:57:57.939Z,56.67
